Time;durP1;ratioP1;P1;durP2;ratioP2;P2;SDS_P1;SDS_P2;PMS_P1;PMS_P2;Temp;Humidity;BMP_temperature;BMP_pressure;BME280_temperature;BME280_humidity;BME280_pressure;Samples;Min_cycle;Max_cycle;Signal;HPM_P1;HPM_P2
2021/12/01 00:00:48;;;;;;;15.55;8.88;;;;;;;-144.19;100.00;76104.84;5039026;28;20055;-86
2021/12/01 00:03:14;;;;;;;;;;;;;;;-144.19;100.00;76102.91;5039269;28;20132;-86
2021/12/01 00:05:42;;;;;;;15.95;8.73;;;;;;;-144.19;100.00;76091.09;5038365;28;19955;-86
2021/12/01 00:08:09;;;;;;;15.35;8.82;;;;;;;-144.19;100.00;76075.34;5039325;28;20077;-89
2021/12/01 00:10:37;;;;;;;15.13;8.90;;;;;;;-144.19;100.00;76063.53;5040210;28;20063;-85
2021/12/01 00:13:05;;;;;;;17.63;9.77;;;;;;;-144.19;100.00;76059.59;5056046;28;20060;-86
2021/12/01 00:15:32;;;;;;;13.05;7.85;;;;;;;-144.19;100.00;76043.84;5037712;28;20053;-87
2021/12/01 00:17:59;;;;;;;14.52;8.95;;;;;;;-144.19;100.00;76039.91;5037475;28;20060;-87
2021/12/01 00:20:26;;;;;;;14.85;9.00;;;;;;;-144.19;100.00;76028.09;5037646;28;20513;-87
2021/12/01 00:22:53;;;;;;;15.50;9.60;;;;;;;-144.19;100.00;76024.16;5037909;28;20491;-87
2021/12/01 00:25:22;;;;;;;18.97;10.27;;;;;;;-144.19;100.00;76012.34;5037372;28;20041;-87
2021/12/01 00:27:54;;;;;;;18.20;9.88;;;;;;;-144.19;100.00;76002.50;5056572;28;20052;-88
2021/12/01 00:30:22;;;;;;;15.68;9.00;;;;;;;-144.19;100.00;75992.69;5038649;28;20434;-87
2021/12/01 00:32:48;;;;;;;19.55;10.35;;;;;;;-144.19;100.00;75984.81;5038784;28;20487;-85
2021/12/01 00:35:15;;;;;;;18.85;10.80;;;;;;;-144.19;100.00;75978.91;5025769;28;20076;-85
2021/12/01 00:37:42;;;;;;;18.73;11.27;;;;;;;-144.19;100.00;75967.09;5018692;28;20049;-87
2021/12/01 00:40:11;;;;;;;25.38;12.88;;;;;;;-144.19;100.00;75963.16;5036408;28;20169;-89
2021/12/01 00:42:39;;;;;;;20.00;11.50;;;;;;;-144.19;100.00;75949.38;5020019;28;20056;-87
2021/12/01 00:45:11;;;;;;;22.67;12.45;;;;;;;-144.19;100.00;75939.53;5035897;28;20054;-89
2021/12/01 00:47:45;;;;;;;24.85;13.63;;;;;;;-144.19;100.00;75921.81;5028207;28;20059;-88
2021/12/01 00:50:16;;;;;;;25.17;13.48;;;;;;;-144.19;100.00;75913.94;5039471;28;20053;-88
2021/12/01 00:52:42;;;;;;;23.40;13.38;;;;;;;-144.19;100.00;75902.16;5038707;28;20153;-88
2021/12/01 00:55:09;;;;;;;27.20;13.75;;;;;;;-144.19;100.00;75896.25;5026964;28;20419;-88
2021/12/01 00:57:37;;;;;;;24.23;13.50;;;;;;;-144.19;100.00;75890.34;5018971;28;20057;-89
2021/12/01 01:00:06;;;;;;;27.67;15.82;;;;;;;-144.19;100.00;75870.66;5017824;28;20057;-87
2021/12/01 01:02:34;;;;;;;30.25;16.55;;;;;;;-144.19;100.00;75870.66;5029657;28;20388;-88
2021/12/01 01:05:00;;;;;;;35.13;19.02;;;;;;;-144.19;100.00;75862.78;5037218;28;20083;-89
2021/12/01 01:07:27;;;;;;;30.87;15.13;;;;;;;-144.19;100.00;75850.97;5038646;28;20053;-87
2021/12/01 01:09:53;;;;;;;33.10;18.70;;;;;;;-144.19;100.00;75831.28;5038649;28;20061;-88
2021/12/01 01:18:07;;;;;;;34.22;19.13;;;;;;;-144.19;100.00;75799.81;5054846;28;20336;-87
2021/12/01 01:20:35;;;;;;;34.70;19.05;;;;;;;-144.19;100.00;75795.88;5038125;28;20059;-87
2021/12/01 01:23:02;;;;;;;;;;;;;;;-144.19;100.00;75780.13;5038441;28;20055;-86
2021/12/01 01:25:29;;;;;;;36.65;21.20;;;;;;;-144.19;100.00;75776.19;5037663;28;20011;-87
2021/12/01 01:27:56;;;;;;;43.40;23.50;;;;;;;-144.19;100.00;75760.44;5037554;28;20068;-87
2021/12/01 01:30:22;;;;;;;38.80;22.00;;;;;;;-144.19;100.00;75756.50;5037604;28;20048;-88
2021/12/01 01:32:49;;;;;;;43.40;23.57;;;;;;;-144.19;100.00;75748.63;5056688;28;20425;-88
2021/12/01 01:35:15;;;;;;;43.73;25.13;;;;;;;-144.19;100.00;75728.94;5025669;28;20053;-89
2021/12/01 01:37:42;;;;;;;38.03;22.08;;;;;;;-144.19;100.00;75728.94;5017843;28;20045;-88
2021/12/01 01:40:09;;;;;;;37.63;22.73;;;;;;;-144.19;100.00;75717.16;5018107;28;20059;-90
2021/12/01 01:42:36;;;;;;;38.72;22.92;;;;;;;-144.19;100.00;75715.19;5036883;28;20051;-87
2021/12/01 01:45:05;;;;;;;40.38;24.38;;;;;;;-144.19;100.00;75705.34;5054954;28;20045;-90
2021/12/01 01:47:31;;;;;;;31.50;19.23;;;;;;;-144.19;100.00;75699.44;5036879;28;20053;-88
2021/12/01 01:50:34;;;;;;;34.67;20.08;;;;;;;-144.19;100.00;75685.66;5038449;28;20056;-88
2021/12/01 01:52:45;;;;;;;30.55;19.90;;;;;;;-144.19;100.00;75673.84;5054826;28;20064;-87
2021/12/01 01:55:11;;;;;;;26.23;17.73;;;;;;;-144.19;100.00;75660.06;5026750;28;20057;-88
2021/12/01 01:57:38;;;;;;;27.67;18.35;;;;;;;-144.19;100.00;75662.03;5035403;28;20057;-87
2021/12/01 02:00:08;;;;;;;31.43;18.80;;;;;;;-144.19;100.00;75664.00;5037748;28;20060;-89
2021/12/01 02:02:35;;;;;;;28.13;16.02;;;;;;;-144.19;100.00;75664.00;5038144;28;20659;-86
2021/12/01 02:05:02;;;;;;;26.83;16.17;;;;;;;-144.19;100.00;75654.16;5056511;28;20114;-89
2021/12/01 02:07:29;;;;;;;21.60;13.90;;;;;;;-144.19;100.00;75654.16;5038033;28;20053;-88
2021/12/01 02:09:55;;;;;;;23.52;14.90;;;;;;;-144.19;100.00;75650.22;5037564;28;20053;-88
2021/12/01 02:12:22;;;;;;;23.00;14.13;;;;;;;-144.19;100.00;75646.31;5037624;28;20045;-89
2021/12/01 02:14:48;;;;;;;19.70;12.37;;;;;;;-144.19;100.00;75642.38;5036238;28;20060;-87
2021/12/01 02:17:15;;;;;;;19.23;12.77;;;;;;;-144.19;100.00;75622.69;5035930;28;20060;-88
2021/12/01 02:19:41;;;;;;;18.87;12.97;;;;;;;-144.19;100.00;75626.63;5036100;28;20057;-88
2021/12/01 02:22:07;;;;;;;20.30;11.88;;;;;;;-144.19;100.00;75614.81;5040350;28;20051;-88
2021/12/01 02:24:34;;;;;;;16.90;10.60;;;;;;;-144.19;100.00;75610.88;5039707;28;20406;-88
2021/12/01 02:27:01;;;;;;;18.30;10.38;;;;;;;-144.19;100.00;75595.13;5039486;28;20056;-88
2021/12/01 02:29:27;;;;;;;16.37;9.50;;;;;;;-144.19;100.00;75601.03;5058863;28;20076;-87
2021/12/01 02:31:55;;;;;;;15.45;10.05;;;;;;;-144.19;100.00;75591.19;5039683;28;20071;-88
2021/12/01 02:34:24;;;;;;;12.13;7.97;;;;;;;-144.19;100.00;75587.25;5040687;28;20050;-87
2021/12/01 02:36:56;;;;;;;10.93;7.10;;;;;;;-144.19;100.00;75583.31;5039634;28;20052;-90
2021/12/01 02:39:23;;;;;;;11.40;7.50;;;;;;;-144.19;100.00;75587.25;5039590;28;20055;-88
2021/12/01 02:41:53;;;;;;;12.60;7.70;;;;;;;-144.19;100.00;75571.53;5039496;28;20053;-87
2021/12/01 02:44:20;;;;;;;11.23;6.75;;;;;;;-144.19;100.00;75567.59;5057152;28;20094;-88
2021/12/01 02:46:47;;;;;;;10.13;5.50;;;;;;;-144.19;100.00;75571.53;5039328;28;20049;-87
2021/12/01 02:49:20;;;;;;;8.15;5.38;;;;;;;-144.19;100.00;75567.59;5040540;28;20053;-87
2021/12/01 02:51:48;;;;;;;9.30;5.60;;;;;;;-144.19;100.00;75567.59;5039978;28;20044;-88
2021/12/01 02:54:15;;;;;;;7.15;4.75;;;;;;;-144.19;100.00;75563.66;5040476;28;20053;-88
2021/12/01 02:56:46;;;;;;;7.78;4.45;;;;;;;-144.19;100.00;75555.78;5039766;28;20059;-88
2021/12/01 02:59:14;;;;;;;9.48;4.88;;;;;;;-144.19;100.00;75547.91;5040078;28;20063;-88
2021/12/01 03:01:41;;;;;;;6.78;4.13;;;;;;;-144.19;100.00;75559.72;5057473;28;20053;-89
2021/12/01 03:04:08;;;;;;;9.48;4.45;;;;;;;-144.19;100.00;75559.72;5057845;28;20129;-89
2021/12/01 03:06:36;;;;;;;9.65;4.53;;;;;;;-144.19;100.00;75543.97;5050459;28;20104;-86
2021/12/01 03:09:07;;;;;;;8.15;4.63;;;;;;;-144.19;100.00;75547.91;5060774;28;20429;-89
2021/12/01 03:11:35;;;;;;;9.20;5.35;;;;;;;-144.19;100.00;75547.91;5038709;28;20395;-89
2021/12/01 03:14:01;;;;;;;5.28;3.78;;;;;;;-144.19;100.00;75561.69;5040555;28;20057;-90
2021/12/01 03:16:27;;;;;;;8.95;4.78;;;;;;;-144.19;100.00;75551.84;5039378;28;20426;-90
2021/12/01 03:18:54;;;;;;;8.10;4.80;;;;;;;-144.19;100.00;75547.91;5039728;28;20056;-88
2021/12/01 03:21:20;;;;;;;6.10;3.90;;;;;;;-144.19;100.00;75540.03;5040099;28;20045;-91
2021/12/01 03:23:47;;;;;;;9.30;4.80;;;;;;;-144.19;100.00;75545.94;5040566;28;20045;-86
2021/12/01 03:26:13;;;;;;;7.43;5.22;;;;;;;-144.19;100.00;75545.94;5039948;28;20522;-89
2021/12/01 03:28:40;;;;;;;9.20;5.60;;;;;;;-144.19;100.00;75545.94;5059173;28;20063;-87
2021/12/01 03:31:07;;;;;;;8.73;5.20;;;;;;;-144.19;100.00;75532.16;5040898;28;20294;-89
2021/12/01 03:33:33;;;;;;;10.73;6.68;;;;;;;-144.19;100.00;75536.09;5037967;28;20045;-90
2021/12/01 03:36:00;;;;;;;8.45;5.32;;;;;;;-144.19;100.00;75522.31;5028546;28;20041;-89
2021/12/01 03:38:27;;;;;;;7.27;5.30;;;;;;;-144.19;100.00;75532.16;5039472;28;20052;-88
2021/12/01 03:40:58;;;;;;;7.60;5.47;;;;;;;-144.19;100.00;75528.22;5039588;28;20053;-88
2021/12/01 03:43:26;;;;;;;7.28;5.28;;;;;;;-144.19;100.00;75528.22;5039855;28;20049;-88
2021/12/01 03:45:52;;;;;;;;;;;;;;;-144.19;100.00;75512.47;5039832;28;20502;-87
2021/12/01 03:48:18;;;;;;;9.07;5.45;;;;;;;-144.19;100.00;75512.47;5040021;28;19920;-91
2021/12/01 03:50:49;;;;;;;7.83;5.93;;;;;;;-144.19;100.00;75520.34;5039412;28;20055;-89
2021/12/01 03:53:20;;;;;;;7.55;5.10;;;;;;;-144.19;100.00;75500.66;5039969;28;20049;-89
2021/12/01 03:55:48;;;;;;;6.80;5.07;;;;;;;-144.19;100.00;75500.66;5026565;28;20053;-89
2021/12/01 03:58:14;;;;;;;;;;;;;;;-144.19;100.00;75484.94;5050452;28;20053;-87
2021/12/01 04:00:41;;;;;;;6.53;4.80;;;;;;;-144.19;100.00;75500.66;5026134;28;19921;-90
2021/12/01 04:03:08;;;;;;;9.77;4.45;;;;;;;-144.19;100.00;75486.91;5028482;28;20064;-87
2021/12/01 04:05:34;;;;;;;6.25;4.20;;;;;;;-144.19;99.72;75477.06;5019268;28;20079;-89
2021/12/01 04:08:04;;;;;;;7.22;4.93;;;;;;;-144.19;100.00;75473.13;5019364;28;20415;-89
2021/12/01 04:10:30;;;;;;;8.63;5.80;;;;;;;-144.19;100.00;75477.06;5020888;28;20045;-90
2021/12/01 04:12:57;;;;;;;7.30;5.03;;;;;;;-144.19;99.97;75477.06;5058688;28;20057;-89
2021/12/01 04:15:24;;;;;;;7.45;5.03;;;;;;;-144.19;100.00;75475.09;5037893;28;20053;-88
2021/12/01 04:17:50;;;;;;;9.82;5.00;;;;;;;-144.19;99.76;75465.25;5037451;28;20399;-84
2021/12/01 04:20:18;;;;;;;5.43;4.07;;;;;;;-144.19;99.35;75469.19;5056007;28;20045;-86
2021/12/01 04:22:47;;;;;;;6.80;4.30;;;;;;;-144.19;99.64;75465.25;5038723;28;20049;-91
2021/12/01 04:25:13;;;;;;;7.75;5.38;;;;;;;-144.19;98.98;75453.44;5038028;28;20049;-89
2021/12/01 04:27:40;;;;;;;8.15;5.22;;;;;;;-144.19;99.11;75459.34;5038851;28;20127;-90
2021/12/01 04:30:10;;;;;;;8.73;5.85;;;;;;;-144.19;98.54;75445.56;5037599;28;20076;-87
2021/12/01 04:32:37;;;;;;;7.05;5.05;;;;;;;-144.19;98.77;75437.69;5037895;28;20103;-86
2021/12/01 04:35:06;;;;;;;6.53;4.10;;;;;;;-144.19;98.42;75441.63;5045328;28;20061;-89
2021/12/01 04:37:35;;;;;;;5.93;3.92;;;;;;;-144.19;98.67;75433.75;5017712;28;20140;-86
2021/12/01 04:40:02;;;;;;;8.93;5.65;;;;;;;-144.19;98.47;75441.63;5024421;28;20495;-90
2021/12/01 04:42:28;;;;;;;;;;;;;;;-144.19;98.72;75441.63;5037576;28;20506;-89
2021/12/01 04:44:55;;;;;;;8.65;5.15;;;;;;;-144.19;98.47;75437.69;5036837;28;19920;-88
2021/12/01 04:47:33;;;;;;;5.47;4.00;;;;;;;-144.19;97.49;75427.88;5037076;28;20060;-91
2021/12/01 04:50:01;;;;;;;8.13;4.68;;;;;;;-144.19;97.65;75429.84;5056598;28;20367;-92
2021/12/01 04:52:27;;;;;;;8.93;6.13;;;;;;;-144.19;97.74;75421.97;5037372;28;20055;-87
2021/12/01 04:54:53;;;;;;;6.63;4.10;;;;;;;-144.19;97.58;75414.09;5028753;28;20501;-87
2021/12/01 04:57:20;;;;;;;9.93;6.10;;;;;;;-144.19;97.80;75439.66;5017312;28;20045;-87
2021/12/01 04:59:47;;;;;;;5.57;3.80;;;;;;;-144.19;97.31;75429.84;5017930;28;20056;-87
2021/12/01 05:02:13;;;;;;;7.28;4.63;;;;;;;-144.19;98.30;75427.88;5018747;28;20057;-89
2021/12/01 05:04:41;;;;;;;7.23;5.87;;;;;;;-144.19;98.26;75437.69;5018592;28;20060;-87
2021/12/01 05:07:09;;;;;;;9.90;5.60;;;;;;;-144.19;97.31;75433.75;5033948;28;20056;-86
2021/12/01 05:09:36;;;;;;;9.27;5.55;;;;;;;-144.19;97.87;75414.09;5049536;28;20053;-86
2021/12/01 05:12:03;;;;;;;5.90;4.80;;;;;;;-144.19;97.90;75414.09;5037471;28;20421;-87
2021/12/01 05:14:29;;;;;;;6.70;5.43;;;;;;;-144.19;98.05;75414.09;5033696;28;20379;-88
2021/12/01 05:16:55;;;;;;;7.77;6.07;;;;;;;-144.19;98.05;75433.75;5017124;28;20053;-85
2021/12/01 05:19:22;;;;;;;8.07;5.63;;;;;;;-144.19;98.74;75418.03;5018113;28;20055;-88
2021/12/01 05:21:49;;;;;;;7.15;5.38;;;;;;;-144.19;99.02;75435.72;5037078;28;20049;-89
2021/12/01 05:24:15;;;;;;;6.57;5.75;;;;;;;-144.19;98.68;75421.97;5038077;28;20049;-88
2021/12/01 05:26:42;;;;;;;8.52;6.20;;;;;;;-144.19;98.34;75421.97;5037092;28;20059;-86
2021/12/01 05:29:08;;;;;;;8.10;6.03;;;;;;;-144.19;98.33;75429.84;5038060;28;20063;-87
2021/12/01 05:31:35;;;;;;;9.60;6.27;;;;;;;-144.19;98.56;75418.03;5055276;28;20299;-89
2021/12/01 05:34:02;;;;;;;10.45;7.57;;;;;;;-144.19;97.96;75408.19;5055499;28;20056;-90
2021/12/01 05:36:28;;;;;;;8.13;6.38;;;;;;;-144.19;97.94;75410.16;5053741;28;20123;-88
2021/12/01 05:38:57;;;;;;;8.00;7.20;;;;;;;-144.19;98.15;75406.22;5037085;28;20336;-89
2021/12/01 05:41:23;;;;;;;7.28;6.35;;;;;;;-144.19;97.29;75398.34;5037397;28;20053;-88
2021/12/01 05:43:50;;;;;;;7.07;6.33;;;;;;;-144.19;96.75;75396.38;5037385;28;20044;-88
2021/12/01 05:46:16;;;;;;;9.37;7.33;;;;;;;-144.19;96.36;75398.34;5036862;28;20693;-86
2021/12/01 05:48:43;;;;;;;7.97;7.27;;;;;;;-144.19;95.15;75382.59;5055103;28;20298;-87
2021/12/01 05:51:09;;;;;;;11.00;8.20;;;;;;;-144.19;95.37;75362.91;5038205;28;20055;-89
2021/12/01 05:53:36;;;;;;;12.48;9.38;;;;;;;-144.19;95.06;75370.78;5054974;28;20053;-89
2021/12/01 05:56:03;;;;;;;10.75;9.65;;;;;;;-144.19;94.91;75359.00;5022359;28;20047;-89
2021/12/01 05:58:30;;;;;;;12.32;9.82;;;;;;;-144.19;93.78;75347.19;5035473;28;20055;-89
2021/12/01 06:00:56;;;;;;;8.90;7.97;;;;;;;-144.19;93.77;75366.84;5037727;28;20049;-91
2021/12/01 06:03:23;;;;;;;12.20;10.45;;;;;;;-144.19;94.24;75357.03;5037466;28;20049;-87
2021/12/01 06:05:49;;;;;;;10.87;9.77;;;;;;;-144.19;94.27;75362.91;5036791;28;20076;-87
2021/12/01 06:08:16;;;;;;;13.15;11.25;;;;;;;-144.19;94.38;75355.06;5037820;28;20052;-87
2021/12/01 06:10:44;;;;;;;12.02;9.45;;;;;;;-144.19;94.81;75351.13;5055364;28;20414;-85
2021/12/01 06:13:13;;;;;;;10.68;9.60;;;;;;;-144.19;95.11;75347.19;5036845;28;20123;-89
2021/12/01 06:15:40;;;;;;;10.02;8.27;;;;;;;-144.19;95.01;75351.13;5037091;28;20044;-86
2021/12/01 06:18:07;;;;;;;14.98;10.55;;;;;;;-144.19;95.30;75355.06;5037459;28;20045;-89
2021/12/01 06:20:33;;;;;;;10.90;9.70;;;;;;;-144.19;94.40;75327.50;5037413;28;20072;-87
2021/12/01 06:22:59;;;;;;;13.07;11.27;;;;;;;-144.19;95.08;75341.28;5056184;28;20045;-86
2021/12/01 06:25:26;;;;;;;15.73;11.18;;;;;;;-144.19;94.78;75331.44;5037082;28;20055;-86
2021/12/01 06:27:54;;;;;;;13.30;10.60;;;;;;;-144.19;94.57;75343.25;5038034;28;20053;-89
2021/12/01 06:30:24;;;;;;;13.45;11.23;;;;;;;-144.19;95.39;75339.31;5055890;28;20049;-87
2021/12/01 06:32:51;;;;;;;13.02;11.00;;;;;;;-144.19;95.81;75345.22;5055795;28;20131;-89
2021/12/01 06:35:18;;;;;;;14.30;11.85;;;;;;;-144.19;96.60;75347.19;5056041;28;20059;-91
2021/12/01 06:37:45;;;;;;;;;;;;;;;-144.19;96.97;75343.25;5038480;28;20053;-89
2021/12/01 06:40:14;;;;;;;12.07;10.65;;;;;;;-144.19;97.84;75347.19;5039150;28;20089;-90
2021/12/01 06:42:40;;;;;;;11.15;8.80;;;;;;;-144.19;98.07;75359.00;5056793;28;20651;-89
2021/12/01 06:45:09;;;;;;;12.35;10.75;;;;;;;-144.19;98.70;75351.13;5038173;28;20057;-87
2021/12/01 06:47:36;;;;;;;12.35;9.93;;;;;;;-144.19;98.54;75353.09;5037344;28;20053;-86
2021/12/01 06:50:04;;;;;;;9.70;8.75;;;;;;;-144.19;98.88;75370.78;5036072;28;20041;-89
2021/12/01 06:52:30;;;;;;;11.05;8.45;;;;;;;-144.19;99.18;75362.91;5038424;28;20063;-86
2021/12/01 06:54:58;;;;;;;12.68;10.38;;;;;;;-144.19;99.12;75339.31;5028991;28;20060;-85
2021/12/01 06:57:24;;;;;;;;;;;;;;;-144.19;99.00;75362.91;5018477;28;20052;-85
2021/12/01 06:59:51;;;;;;;12.45;10.27;;;;;;;-144.19;99.58;75351.13;5018319;28;19921;-87
2021/12/01 07:02:17;;;;;;;11.80;10.50;;;;;;;-144.19;99.74;75357.03;5018397;28;20061;-89
2021/12/01 07:04:44;;;;;;;9.13;8.23;;;;;;;-144.19;99.64;75359.00;5026325;28;20303;-87
2021/12/01 07:07:11;;;;;;;11.98;9.20;;;;;;;-144.19;99.31;75335.38;5038776;28;20057;-88
2021/12/01 07:09:38;;;;;;;11.50;8.60;;;;;;;-144.19;99.16;75341.28;5058343;28;20071;-88
2021/12/01 07:12:04;;;;;;;9.47;8.20;;;;;;;-144.19;98.59;75345.22;5040872;28;20128;-89
2021/12/01 07:14:31;;;;;;;9.35;7.55;;;;;;;-144.19;97.77;75329.47;5041795;28;20048;-88
2021/12/01 07:16:58;;;;;;;9.47;7.30;;;;;;;-144.19;98.70;75333.41;5041516;28;20063;-89
2021/12/01 07:19:25;;;;;;;10.02;7.07;;;;;;;-144.19;99.09;75339.31;5037728;28;20052;-85
2021/12/01 07:21:51;;;;;;;9.15;7.57;;;;;;;-144.19;98.63;75327.50;5033060;28;20052;-89
2021/12/01 07:24:20;;;;;;;8.10;5.87;;;;;;;-144.19;97.94;75323.56;5059328;28;20055;-88
2021/12/01 07:26:46;;;;;;;9.40;7.13;;;;;;;-144.19;98.09;75327.50;5041460;28;20315;-88
2021/12/01 07:29:13;;;;;;;9.52;7.25;;;;;;;-144.19;98.46;75315.69;5041171;28;20422;-89
2021/12/01 07:31:40;;;;;;;8.73;7.20;;;;;;;-144.19;98.47;75307.81;5041045;28;20144;-88
2021/12/01 07:34:06;;;;;;;9.03;5.70;;;;;;;-144.19;97.85;75315.69;5040135;28;20053;-87
2021/12/01 07:36:32;;;;;;;8.73;5.77;;;;;;;-144.19;97.79;75307.81;5040635;28;20071;-88
2021/12/01 07:38:59;;;;;;;10.50;6.57;;;;;;;-144.19;98.00;75305.84;5040253;28;20048;-88
2021/12/01 07:41:26;;;;;;;6.55;4.72;;;;;;;-144.19;96.83;75296.03;5040950;28;20063;-88
2021/12/01 07:43:52;;;;;;;9.75;5.88;;;;;;;-144.19;96.96;75299.94;5039750;28;20499;-89
2021/12/01 07:46:19;;;;;;;5.10;4.05;;;;;;;-144.19;96.48;75307.81;5056751;28;20052;-85
2021/12/01 07:48:45;;;;;;;6.50;5.17;;;;;;;-144.19;96.71;75296.03;5031495;28;20151;-88
2021/12/01 07:51:12;;;;;;;6.68;4.38;;;;;;;-144.19;96.92;75294.06;5054611;28;20053;-86
2021/12/01 07:53:39;;;;;;;8.55;5.13;;;;;;;-144.19;96.78;75298.00;5034000;28;20055;-86
2021/12/01 07:56:05;;;;;;;6.43;4.60;;;;;;;-144.19;96.63;75278.31;5027617;28;20061;-87
2021/12/01 07:58:32;;;;;;;4.85;4.00;;;;;;;-144.19;96.63;75274.38;5041081;28;20055;-86
2021/12/01 08:00:58;;;;;;;6.77;4.73;;;;;;;-144.19;96.52;75260.59;5041030;28;20063;-87
2021/12/01 08:03:25;;;;;;;6.95;5.05;;;;;;;-144.19;97.16;75272.41;5039487;28;20055;-87
2021/12/01 08:05:52;;;;;;;4.90;3.55;;;;;;;-144.19;97.79;75286.19;5040416;28;20049;-86
2021/12/01 08:08:18;;;;;;;4.53;2.65;;;;;;;-144.19;97.42;75256.66;5057302;28;20057;-89
2021/12/01 08:10:46;;;;;;;5.80;3.50;;;;;;;-144.19;97.31;75250.75;5039618;28;20056;-87
2021/12/01 08:13:12;;;;;;;5.80;4.25;;;;;;;-144.19;98.25;75264.53;5038338;28;20048;-86
2021/12/01 08:15:48;;;;;;;4.63;3.08;;;;;;;-144.19;98.95;75256.66;5049395;28;20124;-88
2021/12/01 08:18:16;;;;;;;5.45;3.83;;;;;;;-144.19;98.03;75244.84;5038525;28;20733;-87
2021/12/01 08:20:43;;;;;;;4.72;3.17;;;;;;;-144.19;98.25;75240.91;5040602;28;20051;-88
2021/12/01 08:23:10;;;;;;;4.88;4.28;;;;;;;-144.19;98.90;75240.91;5037297;28;20055;-88
2021/12/01 08:25:37;;;;;;;4.23;3.63;;;;;;;-144.19;97.81;75244.84;5040033;28;20052;-87
2021/12/01 08:28:04;;;;;;;5.22;4.13;;;;;;;-144.19;98.14;75229.13;5039032;28;20061;-87
2021/12/01 08:30:32;;;;;;;4.43;3.25;;;;;;;-144.19;98.08;75229.13;5035144;28;20056;-88
2021/12/01 08:32:58;;;;;;;6.13;4.20;;;;;;;-144.19;97.39;75233.06;5019956;28;20451;-87
2021/12/01 08:35:25;;;;;;;5.35;3.78;;;;;;;-144.19;98.25;75223.22;5031261;28;20151;-88
2021/12/01 08:37:51;;;;;;;6.40;4.10;;;;;;;-144.19;96.85;75205.50;5038930;28;20049;-87
2021/12/01 08:40:18;;;;;;;6.07;3.67;;;;;;;-144.19;96.49;75219.28;5037071;28;20477;-86
2021/12/01 08:42:46;;;;;;;7.03;4.35;;;;;;;-144.19;97.48;75199.59;5038564;28;20128;-88
2021/12/01 08:45:14;;;;;;;6.47;4.35;;;;;;;-144.19;96.77;75185.81;5030468;28;20048;-90
2021/12/01 08:47:40;;;;;;;6.05;3.75;;;;;;;-144.19;96.03;75177.94;5034404;28;20049;-87
2021/12/01 08:50:09;;;;;;;5.50;4.00;;;;;;;-144.19;95.88;75185.81;5039908;28;20112;-88
2021/12/01 08:52:36;;;;;;;5.53;4.07;;;;;;;-144.19;96.41;75164.19;5039164;28;20361;-88
2021/12/01 08:55:04;;;;;;;5.07;3.13;;;;;;;-144.19;95.97;75177.94;5037879;28;20041;-89
2021/12/01 08:57:30;;;;;;;4.50;2.97;;;;;;;-144.19;96.43;75170.09;5036208;28;20049;-86
2021/12/01 08:59:57;;;;;;;4.28;3.40;;;;;;;-144.19;96.63;75162.22;5021807;28;20054;-85
2021/12/01 09:02:23;;;;;;;4.60;3.33;;;;;;;-144.19;96.71;75166.16;5017568;28;20057;-86
2021/12/01 09:04:50;;;;;;;5.73;3.83;;;;;;;-144.19;97.11;75160.25;5020592;28;20451;-87
2021/12/01 09:07:18;;;;;;;5.68;3.92;;;;;;;-144.19;97.11;75146.47;5028162;28;20041;-87
2021/12/01 09:09:46;;;;;;;5.88;3.83;;;;;;;-144.19;97.42;75134.66;5031952;28;20056;-88
2021/12/01 09:12:14;;;;;;;5.07;3.65;;;;;;;-144.19;97.39;75146.47;5037362;28;20044;-86
2021/12/01 09:14:42;;;;;;;5.45;4.13;;;;;;;-144.19;97.36;75146.47;5038048;28;20051;-90
2021/12/01 09:17:10;;;;;;;6.25;4.70;;;;;;;-144.19;97.14;75111.06;5037892;28;20049;-87
2021/12/01 09:19:36;;;;;;;5.53;3.70;;;;;;;-144.19;96.93;75114.97;5057337;28;20139;-89
2021/12/01 09:22:03;;;;;;;5.67;4.63;;;;;;;-144.19;96.75;75122.84;5033542;28;20050;-89
2021/12/01 09:24:29;;;;;;;3.97;3.03;;;;;;;-144.19;96.66;75114.97;5034273;28;20305;-89
2021/12/01 09:26:56;;;;;;;4.47;4.07;;;;;;;-144.19;97.24;75114.97;5048440;28;20048;-86
2021/12/01 09:29:23;;;;;;;7.15;5.00;;;;;;;-144.19;97.10;75114.97;5025290;28;20069;-88
2021/12/01 09:31:49;;;;;;;7.97;5.37;;;;;;;-144.19;96.95;75114.97;5036546;28;20081;-88
2021/12/01 09:34:16;;;;;;;6.43;4.60;;;;;;;-144.19;97.37;75099.25;5041106;28;20072;-88
2021/12/01 09:36:43;;;;;;;5.17;4.17;;;;;;;-144.19;97.17;75099.25;5031109;28;20049;-89
2021/12/01 09:39:10;;;;;;;7.82;5.88;;;;;;;-144.19;97.68;75099.25;5028892;28;20416;-86
2021/12/01 09:41:36;;;;;;;8.00;5.03;;;;;;;-144.19;97.34;75087.44;5017650;28;20065;-88
2021/12/01 09:44:03;;;;;;;5.80;4.00;;;;;;;-144.19;97.84;75093.34;5054852;28;20055;-87
2021/12/01 09:46:30;;;;;;;7.60;4.32;;;;;;;-144.19;97.92;75081.53;5036574;28;20791;-86
2021/12/01 09:48:57;;;;;;;;;;;;;;;-144.19;97.56;75071.69;5056981;28;20053;-86
2021/12/01 09:51:24;;;;;;;4.38;2.78;;;;;;;-144.19;97.40;75075.63;5055507;28;19921;-89
2021/12/01 09:53:53;;;;;;;3.45;2.42;;;;;;;-144.19;96.94;75067.75;5031457;28;20441;-86
2021/12/01 09:56:21;;;;;;;2.67;2.25;;;;;;;-144.19;96.92;75052.03;5026018;28;20056;-86
2021/12/01 09:58:47;;;;;;;3.88;2.72;;;;;;;-144.19;97.07;75055.97;5049072;28;20044;-87
2021/12/01 10:01:19;;;;;;;6.47;3.20;;;;;;;-144.19;96.20;75028.41;5026350;28;20494;-86
2021/12/01 10:03:47;;;;;;;4.38;2.10;;;;;;;-144.19;96.88;75020.53;5046418;28;20045;-88
2021/12/01 10:06:17;;;;;;;3.00;2.00;;;;;;;-144.19;95.50;75012.66;5034832;28;20053;-87
2021/12/01 10:08:50;;;;;;;5.15;2.80;;;;;;;-144.19;95.41;75002.84;5029945;28;20044;-85
2021/12/01 10:11:28;;;;;;;2.88;1.83;;;;;;;-144.19;94.92;74993.00;5046311;28;20050;-88
2021/12/01 10:14:01;;;;;;;5.28;2.67;;;;;;;-144.19;95.43;74993.00;5036138;28;20049;-89
2021/12/01 10:16:31;;;;;;;5.15;2.60;;;;;;;-144.19;94.90;74981.19;5022259;28;20068;-86
2021/12/01 10:19:01;;;;;;;4.55;2.40;;;;;;;-144.19;95.26;74979.22;5017614;28;20061;-86
2021/12/01 10:21:42;;;;;;;4.15;1.98;;;;;;;-144.19;94.30;74977.25;5016800;28;20623;-87
2021/12/01 10:24:16;;;;;;;4.15;2.35;;;;;;;-144.19;93.86;74985.13;5035621;28;20045;-86
2021/12/01 10:26:46;;;;;;;5.00;1.90;;;;;;;-144.19;93.90;74969.38;5043050;28;20060;-85
2021/12/01 10:29:18;;;;;;;2.08;1.42;;;;;;;-144.19;93.45;74965.44;5028825;28;20429;-88
2021/12/01 10:31:56;;;;;;;3.00;2.03;;;;;;;-144.19;94.49;74967.41;5037040;28;20061;-88
2021/12/01 10:34:26;;;;;;;3.30;2.35;;;;;;;-144.19;94.69;74961.50;5035687;28;20521;-87
2021/12/01 10:37:10;;;;;;;5.30;3.30;;;;;;;-144.19;95.92;74977.25;5028905;28;20502;-85
2021/12/01 10:39:39;;;;;;;3.83;2.13;;;;;;;-144.19;96.03;74969.38;5055682;28;20049;-86
2021/12/01 10:42:17;;;;;;;2.83;1.85;;;;;;;-144.19;96.90;74963.47;5039214;28;20057;-86
2021/12/01 10:44:59;;;;;;;6.47;2.83;;;;;;;-144.19;96.77;74963.47;5039273;28;20048;-87
2021/12/01 10:47:35;;;;;;;5.80;3.15;;;;;;;-144.19;96.37;74967.41;5035440;28;20438;-86
2021/12/01 10:50:04;;;;;;;3.88;2.08;;;;;;;-144.19;96.81;74951.66;5040330;28;20045;-87
2021/12/01 10:52:39;;;;;;;2.90;1.77;;;;;;;-144.19;96.83;74961.50;5033017;28;20049;-85
2021/12/01 10:55:13;;;;;;;2.85;1.40;;;;;;;-144.19;96.81;74953.63;5039774;28;20098;-88
2021/12/01 10:57:42;;;;;;;5.05;2.38;;;;;;;-144.19;96.37;74947.72;5040957;28;20168;-88
2021/12/01 11:00:15;;;;;;;3.50;2.20;;;;;;;-144.19;96.45;74949.69;5053976;28;20051;-88
2021/12/01 11:02:42;;;;;;;3.90;2.30;;;;;;;-144.19;96.60;74947.72;5032625;28;20055;-85
2021/12/01 11:05:08;;;;;;;5.00;2.47;;;;;;;-144.19;96.42;74949.69;5020320;28;20045;-86
2021/12/01 11:07:35;;;;;;;2.17;1.47;;;;;;;-144.19;96.11;74961.50;5038064;28;20057;-87
2021/12/01 11:10:22;;;;;;;3.47;2.15;;;;;;;-144.19;94.52;74953.63;5030982;28;20079;-87
2021/12/01 11:12:57;;;;;;;1.33;1.20;;;;;;;-144.19;93.24;74933.97;5058184;28;20113;-86
2021/12/01 11:15:30;;;;;;;1.77;1.23;;;;;;;-144.19;93.19;74941.84;5039927;28;20461;-85
2021/12/01 11:18:20;;;;;;;2.13;1.23;;;;;;;-144.19;93.43;74930.03;5043200;28;20060;-87
2021/12/01 11:21:12;;;;;;;2.22;1.45;;;;;;;-144.19;94.24;74937.91;5043891;28;20084;-87